Time;durP1;ratioP1;P1;durP2;ratioP2;P2;SDS_P1;SDS_P2;PMS_P1;PMS_P2;Temp;Humidity;BMP_temperature;BMP_pressure;BME280_temperature;BME280_humidity;BME280_pressure;Samples;Min_cycle;Max_cycle;Signal;HPM_P1;HPM_P2
2021/01/05 00:01:48;;;;;;;30.88;17.60;;;22.60;40.30;;;;;;6100785;28;83604;-65
2021/01/05 00:04:48;;;;;;;26.58;16.40;;;22.60;40.30;;;;;;6102468;28;83128;-63
2021/01/05 00:07:49;;;;;;;28.00;16.90;;;22.60;40.70;;;;;;6098523;28;83532;-63
2021/01/05 00:10:49;;;;;;;26.17;15.77;;;22.60;40.50;;;;;;6098956;28;83722;-63
2021/01/05 00:13:50;;;;;;;25.98;15.57;;;22.50;40.20;;;;;;6097561;28;83766;-63
2021/01/05 00:16:50;;;;;;;25.02;15.65;;;22.50;40.30;;;;;;6095091;28;83278;-63
2021/01/05 00:19:51;;;;;;;25.38;15.75;;;22.50;40.30;;;;;;6085856;28;83182;-63
2021/01/05 00:22:52;;;;;;;23.95;14.75;;;22.50;40.30;;;;;;6099940;28;85561;-62
2021/01/05 00:25:52;;;;;;;28.33;16.65;;;22.50;40.20;;;;;;6098711;28;83235;-63
2021/01/05 00:28:53;;;;;;;27.30;16.63;;;22.50;40.40;;;;;;6099743;28;83618;-63
2021/01/05 00:31:53;;;;;;;26.20;15.00;;;22.50;40.20;;;;;;6101146;28;83195;-64
2021/01/05 00:34:54;;;;;;;28.48;17.38;;;22.50;40.20;;;;;;6088772;28;83517;-62
2021/01/05 00:37:54;;;;;;;29.08;16.75;;;22.50;40.10;;;;;;6102749;28;83270;-62
2021/01/05 00:40:55;;;;;;;24.50;15.63;;;22.50;40.20;;;;;;6097872;28;84283;-61
2021/01/05 00:43:55;;;;;;;25.15;15.50;;;22.50;40.20;;;;;;6098201;28;83507;-62
2021/01/05 00:46:56;;;;;;;24.42;15.30;;;22.50;40.00;;;;;;6091493;28;84299;-62
2021/01/05 00:49:57;;;;;;;26.02;14.82;;;22.50;40.00;;;;;;6112530;28;85820;-62
2021/01/05 00:52:57;;;;;;;26.20;15.38;;;22.50;40.60;;;;;;6099448;28;83395;-61
2021/01/05 00:55:58;;;;;;;21.33;12.68;;;22.50;40.00;;;;;;6099234;28;84721;-62
2021/01/05 00:58:58;;;;;;;21.60;13.10;;;22.50;40.40;;;;;;6104677;28;83315;-61
2021/01/05 01:01:59;;;;;;;22.27;13.70;;;22.50;40.10;;;;;;6097570;28;85583;-62
2021/01/05 01:05:00;;;;;;;24.10;13.63;;;22.50;40.00;;;;;;6098932;28;85780;-62
2021/01/05 01:08:00;;;;;;;21.90;13.85;;;22.50;40.10;;;;;;6097396;28;85834;-62
2021/01/05 01:11:01;;;;;;;22.27;13.25;;;22.50;40.10;;;;;;6106903;28;86300;-62
2021/01/05 01:14:04;;;;;;;24.83;12.80;;;22.50;40.10;;;;;;6094268;28;83305;-62
2021/01/05 01:17:04;;;;;;;21.95;13.80;;;22.40;39.90;;;;;;6096731;28;83304;-61
2021/01/05 01:20:06;;;;;;;22.02;13.07;;;22.50;40.20;;;;;;6106913;28;84553;-62
2021/01/05 01:23:08;;;;;;;20.23;12.38;;;22.40;40.00;;;;;;6088152;28;86162;-62
2021/01/05 01:26:12;;;;;;;23.88;13.75;;;22.40;40.20;;;;;;6106699;28;84223;-62
2021/01/05 01:29:13;;;;;;;17.50;11.52;;;22.50;40.20;;;;;;6098864;28;83851;-62
2021/01/05 01:32:13;;;;;;;20.17;12.57;;;22.50;40.00;;;;;;6089285;28;85845;-62
2021/01/05 01:35:14;;;;;;;17.23;11.32;;;22.40;40.00;;;;;;6099168;28;85854;-61
2021/01/05 01:38:16;;;;;;;18.95;12.48;;;22.40;40.00;;;;;;6112314;28;85289;-61
2021/01/05 01:41:27;;;;;;;18.17;11.68;;;22.40;39.80;;;;;;6096500;28;86011;-61
2021/01/05 01:44:31;;;;;;;18.58;11.02;;;22.40;40.10;;;;;;6099384;28;85546;-61
2021/01/05 01:47:32;;;;;;;18.80;11.48;;;22.40;40.20;;;;;;6087383;28;87465;-61
2021/01/05 01:50:37;;;;;;;18.52;11.45;;;22.40;39.90;;;;;;6090142;28;86047;-61
2021/01/05 01:53:42;;;;;;;20.25;12.13;;;22.40;40.10;;;;;;6092375;28;83484;-61
2021/01/05 01:56:42;;;;;;;19.38;11.98;;;22.40;39.80;;;;;;6107159;28;85725;-61
2021/01/05 01:59:50;;;;;;;19.15;11.40;;;22.40;39.90;;;;;;6102170;28;85859;-61
2021/01/05 02:03:01;;;;;;;18.70;12.10;;;22.40;40.00;;;;;;6115635;28;88223;-62
2021/01/05 02:06:01;;;;;;;17.92;10.73;;;22.40;39.80;;;;;;6110960;28;84110;-62
2021/01/05 02:09:02;;;;;;;19.70;10.88;;;22.40;39.60;;;;;;6100969;28;85512;-62
2021/01/05 02:12:03;;;;;;;18.42;11.00;;;22.40;39.60;;;;;;6117268;28;85885;-62
2021/01/05 02:15:06;;;;;;;18.20;11.20;;;22.40;39.50;;;;;;6095717;28;86271;-60
2021/01/05 02:18:10;;;;;;;17.08;11.10;;;22.30;39.70;;;;;;6113509;28;85747;-61
2021/01/05 02:21:11;;;;;;;19.88;11.35;;;22.30;39.70;;;;;;6102819;28;85397;-61
2021/01/05 02:24:16;;;;;;;15.82;10.13;;;22.30;39.50;;;;;;6084663;28;86380;-62
2021/01/05 02:27:20;;;;;;;17.33;10.88;;;22.40;39.90;;;;;;6116320;28;85668;-61
2021/01/05 02:30:22;;;;;;;18.88;11.75;;;22.40;39.70;;;;;;6113004;28;83799;-61
2021/01/05 02:33:23;;;;;;;15.95;10.27;;;22.40;39.50;;;;;;6103337;28;83545;-62
2021/01/05 02:36:23;;;;;;;17.65;11.18;;;22.40;39.60;;;;;;6098842;28;85066;-62
2021/01/05 02:39:42;;;;;;;15.48;9.50;;;22.30;39.10;;;;;;6098343;28;83241;-62
2021/01/05 02:43:01;;;;;;;16.98;10.27;;;22.30;39.30;;;;;;6103822;28;82716;-62
2021/01/05 02:46:20;;;;;;;16.02;10.43;;;22.40;39.50;;;;;;6099790;28;83150;-62
2021/01/05 02:49:39;;;;;;;15.45;9.75;;;22.40;39.40;;;;;;6103299;28;83365;-62
2021/01/05 02:52:58;;;;;;;18.33;10.02;;;22.40;39.40;;;;;;6102447;28;82667;-62
2021/01/05 02:56:17;;;;;;;13.73;8.52;;;22.40;39.50;;;;;;6099207;28;83641;-62
2021/01/05 02:59:36;;;;;;;14.77;9.18;;;22.30;39.20;;;;;;6105156;28;82735;-63
2021/01/05 03:02:55;;;;;;;15.40;9.02;;;22.30;39.40;;;;;;6099502;28;83662;-63
2021/01/05 03:06:14;;;;;;;15.52;9.48;;;22.30;39.00;;;;;;6102052;28;81064;-63
2021/01/05 03:09:34;;;;;;;14.90;9.63;;;22.30;39.40;;;;;;6078816;28;80699;-63
2021/01/05 03:12:54;;;;;;;16.23;9.63;;;22.30;39.10;;;;;;6102388;28;81212;-63
2021/01/05 03:16:13;;;;;;;14.80;8.90;;;22.30;39.10;;;;;;6092016;28;81763;-63
2021/01/05 03:19:32;;;;;;;14.25;8.75;;;22.30;39.20;;;;;;6098176;28;81131;-63
2021/01/05 03:22:51;;;;;;;13.75;9.25;;;22.30;39.30;;;;;;6096837;28;80450;-62
2021/01/05 03:26:10;;;;;;;14.23;8.82;;;22.30;39.20;;;;;;6105062;28;80413;-62
2021/01/05 03:29:29;;;;;;;14.23;8.82;;;22.30;39.20;;;;;;6101921;28;80810;-63
2021/01/05 03:32:50;;;;;;;13.25;8.35;;;22.30;39.20;;;;;;6074087;28;80682;-63
2021/01/05 03:36:09;;;;;;;13.50;7.65;;;22.30;39.20;;;;;;6102962;28;83519;-63
2021/01/05 03:39:28;;;;;;;13.35;8.05;;;22.30;38.90;;;;;;6105838;28;81200;-62
2021/01/05 03:42:47;;;;;;;15.70;8.43;;;22.30;39.00;;;;;;6103752;28;82942;-63
2021/01/05 03:46:06;;;;;;;19.40;9.15;;;22.30;39.20;;;;;;6103845;28;80925;-62
2021/01/05 03:49:25;;;;;;;11.05;7.57;;;22.30;39.00;;;;;;6104290;28;81282;-63
2021/01/05 03:52:44;;;;;;;12.68;8.20;;;22.30;39.10;;;;;;6106266;28;82755;-62
2021/01/05 03:56:03;;;;;;;13.02;7.85;;;22.30;38.40;;;;;;6103156;28;80411;-64
2021/01/05 03:59:22;;;;;;;11.20;7.05;;;22.30;38.60;;;;;;6103537;28;80727;-62
2021/01/05 04:02:41;;;;;;;10.55;7.10;;;22.30;39.60;;;;;;6103479;28;80692;-62
2021/01/05 04:05:42;;;;;;;10.75;6.20;;;22.30;40.20;;;;;;6100354;28;80940;-62
2021/01/05 04:08:42;;;;;;;11.30;6.90;;;22.30;40.40;;;;;;6108603;28;80811;-61
2021/01/05 04:11:43;;;;;;;14.90;6.78;;;22.40;40.20;;;;;;6085769;28;82967;-60
2021/01/05 04:14:43;;;;;;;12.32;6.60;;;22.30;40.50;;;;;;6104218;28;80905;-61
2021/01/05 04:17:44;;;;;;;14.63;6.40;;;22.30;40.60;;;;;;6093291;28;80235;-62
2021/01/05 04:20:44;;;;;;;11.50;6.28;;;22.40;40.80;;;;;;6099935;28;81498;-62
2021/01/05 04:23:45;;;;;;;9.13;5.60;;;22.40;40.60;;;;;;6102775;28;81517;-62
2021/01/05 04:26:45;;;;;;;8.73;5.78;;;22.30;41.10;;;;;;6100732;28;83364;-62
2021/01/05 04:29:46;;;;;;;9.93;5.95;;;22.40;40.70;;;;;;6102710;28;81464;-62
2021/01/05 04:32:46;;;;;;;9.27;5.32;;;22.40;40.00;;;;;;6105309;28;80922;-62
2021/01/05 04:35:47;;;;;;;10.23;5.75;;;22.50;39.60;;;;;;6102878;28;80876;-62
2021/01/05 04:38:47;;;;;;;9.93;5.78;;;22.50;39.60;;;;;;6099799;28;80461;-62
2021/01/05 04:41:48;;;;;;;7.97;5.28;;;22.50;39.50;;;;;;6105332;28;80359;-63
2021/01/05 04:44:48;;;;;;;8.45;5.30;;;22.50;39.60;;;;;;6095357;28;80634;-62
2021/01/05 04:47:49;;;;;;;7.88;5.40;;;22.50;39.70;;;;;;6103250;28;80498;-62
2021/01/05 04:50:49;;;;;;;9.25;5.80;;;22.60;39.40;;;;;;6112031;28;84525;-60
2021/01/05 04:53:50;;;;;;;6.63;4.75;;;22.60;40.20;;;;;;6104018;28;80302;-60
2021/01/05 04:56:51;;;;;;;7.38;4.85;;;22.60;39.40;;;;;;6094568;28;80223;-60
2021/01/05 04:59:51;;;;;;;8.32;5.53;;;22.60;38.80;;;;;;6101474;28;80893;-60
2021/01/05 05:02:52;;;;;;;9.32;4.70;;;22.60;38.90;;;;;;6094270;28;80618;-59
2021/01/05 05:05:52;;;;;;;8.20;4.63;;;22.60;38.80;;;;;;6098540;28;87401;-61
2021/01/05 05:08:53;;;;;;;7.28;4.53;;;22.60;38.90;;;;;;6091981;28;81733;-61
2021/01/05 05:11:53;;;;;;;7.53;4.72;;;22.70;39.00;;;;;;6092952;28;83500;-61
2021/01/05 05:14:54;;;;;;;7.70;4.47;;;22.70;38.70;;;;;;6093424;28;80868;-60
2021/01/05 05:17:54;;;;;;;7.43;4.35;;;22.70;38.70;;;;;;6103197;28;80596;-60
2021/01/05 05:20:55;;;;;;;7.20;4.63;;;22.70;38.80;;;;;;6094065;28;80525;-60
2021/01/05 05:23:55;;;;;;;7.15;4.38;;;22.80;38.90;;;;;;6092443;28;81293;-61
2021/01/05 05:26:56;;;;;;;5.80;3.47;;;22.70;39.30;;;;;;6100386;28;80413;-59
2021/01/05 05:29:56;;;;;;;6.22;3.70;;;22.70;38.70;;;;;;6100842;28;81188;-60
2021/01/05 05:32:57;;;;;;;6.05;4.15;;;22.70;38.80;;;;;;6099004;28;82138;-60
2021/01/05 05:35:57;;;;;;;4.97;3.78;;;22.80;38.80;;;;;;6096220;28;81331;-60
2021/01/05 05:38:58;;;;;;;4.80;3.20;;;22.80;38.70;;;;;;6096314;28;81005;-60
2021/01/05 05:41:58;;;;;;;5.88;3.60;;;22.80;38.70;;;;;;6103808;28;80109;-60
2021/01/05 05:44:59;;;;;;;5.53;3.30;;;22.80;38.90;;;;;;6097156;28;81653;-60
2021/01/05 05:47:59;;;;;;;6.25;3.67;;;22.80;38.70;;;;;;6099788;28;80612;-59
2021/01/05 05:51:00;;;;;;;4.50;2.80;;;22.80;39.00;;;;;;6103524;28;80891;-60
2021/01/05 05:54:00;;;;;;;5.30;3.53;;;22.80;38.70;;;;;;6098372;28;80570;-60
2021/01/05 05:57:01;;;;;;;5.05;3.28;;;22.80;38.70;;;;;;6098841;28;80631;-62
2021/01/05 06:00:01;;;;;;;5.70;3.67;;;22.80;40.30;;;;;;6089880;28;80589;-61
2021/01/05 06:03:12;;;;;;;4.65;3.03;;;22.80;38.80;;;;;;6099514;28;83046;-62
2021/01/05 06:06:13;;;;;;;4.80;2.70;;;22.90;39.70;;;;;;6098675;28;80765;-61
2021/01/05 06:09:13;;;;;;;4.95;3.33;;;22.90;41.20;;;;;;6103567;28;80634;-61
2021/01/05 06:12:14;;;;;;;9.32;3.05;;;22.90;39.30;;;;;;6093330;28;83724;-60
2021/01/05 06:15:14;;;;;;;7.45;2.60;;;22.90;39.60;;;;;;6102280;28;81513;-61
2021/01/05 06:18:15;;;;;;;8.18;2.60;;;22.90;41.00;;;;;;6099388;28;80965;-60
2021/01/05 06:21:15;;;;;;;4.63;2.00;;;23.00;41.50;;;;;;6101214;28;80644;-60
2021/01/05 06:24:16;;;;;;;3.67;2.20;;;22.90;41.40;;;;;;6101067;28;82855;-60
2021/01/05 06:27:16;;;;;;;2.30;1.35;;;22.90;42.40;;;;;;6101170;28;80996;-59
2021/01/05 06:30:17;;;;;;;2.80;1.50;;;23.00;43.20;;;;;;6100101;28;80729;-60
2021/01/05 06:33:17;;;;;;;5.55;1.60;;;23.00;43.70;;;;;;6096892;28;81929;-60
2021/01/05 06:36:18;;;;;;;3.47;1.65;;;23.00;44.50;;;;;;6096898;28;80789;-60
2021/01/05 06:39:18;;;;;;;4.10;1.35;;;23.00;44.80;;;;;;6102775;28;81681;-60
2021/01/05 06:42:19;;;;;;;2.10;1.40;;;23.00;45.50;;;;;;6100824;28;80624;-61
2021/01/05 06:45:20;;;;;;;2.33;1.38;;;23.00;45.80;;;;;;6105202;28;80542;-62
2021/01/05 06:48:20;;;;;;;2.13;1.40;;;23.00;46.30;;;;;;6100506;28;81572;-61
2021/01/05 06:51:21;;;;;;;3.50;2.03;;;23.00;46.30;;;;;;6105459;28;80729;-61
2021/01/05 06:54:21;;;;;;;2.88;1.80;;;23.10;46.80;;;;;;6104950;28;80879;-61
2021/01/05 06:57:22;;;;;;;3.65;2.13;;;23.10;47.30;;;;;;6104170;28;80430;-60
2021/01/05 07:00:22;;;;;;;4.63;1.70;;;23.10;47.40;;;;;;6103746;28;81355;-61
2021/01/05 07:03:23;;;;;;;3.75;1.73;;;23.10;47.70;;;;;;6105291;28;80711;-62
2021/01/05 07:06:23;;;;;;;2.65;1.60;;;23.10;47.50;;;;;;6100451;28;81946;-63
2021/01/05 07:09:24;;;;;;;2.15;1.42;;;23.10;47.80;;;;;;6099607;28;80467;-61
2021/01/05 07:12:24;;;;;;;10.48;1.38;;;23.10;47.60;;;;;;6094549;28;81620;-62
2021/01/05 07:15:25;;;;;;;6.03;1.52;;;23.10;47.80;;;;;;6098720;28;80850;-61
2021/01/05 07:18:25;;;;;;;3.72;1.67;;;23.10;47.50;;;;;;6099093;28;80044;-61
2021/01/05 07:21:26;;;;;;;3.08;1.60;;;23.10;47.30;;;;;;6102668;28;80896;-61
2021/01/05 07:24:26;;;;;;;2.72;1.25;;;23.00;47.30;;;;;;6102878;28;80601;-60
2021/01/05 07:27:27;;;;;;;3.88;1.80;;;23.00;47.20;;;;;;6090238;28;80682;-61
2021/01/05 07:30:27;;;;;;;2.63;1.30;;;23.00;46.70;;;;;;6103349;28;81074;-61
2021/01/05 07:33:28;;;;;;;2.22;1.27;;;23.00;47.00;;;;;;6099800;28;80902;-60
2021/01/05 07:36:29;;;;;;;1.80;1.10;;;23.00;47.40;;;;;;6096903;28;80997;-60
2021/01/05 07:39:29;;;;;;;1.15;0.82;;;23.00;47.00;;;;;;6089965;28;83061;-61
2021/01/05 07:42:30;;;;;;;4.28;0.90;;;22.90;47.10;;;;;;6099726;28;80481;-61
2021/01/05 07:45:30;;;;;;;1.42;0.90;;;22.80;47.30;;;;;;6098939;28;81800;-61
2021/01/05 07:48:31;;;;;;;1.15;0.82;;;22.80;47.40;;;;;;6101339;28;80680;-62
2021/01/05 07:51:31;;;;;;;1.88;0.73;;;22.80;47.60;;;;;;6118921;28;82843;-62
2021/01/05 07:54:32;;;;;;;2.03;0.90;;;22.70;47.60;;;;;;6103317;28;80733;-61
2021/01/05 07:57:32;;;;;;;1.30;0.60;;;22.70;47.70;;;;;;6119775;28;81739;-61
2021/01/05 08:00:33;;;;;;;2.38;0.98;;;22.70;47.50;;;;;;6100656;28;80332;-59
2021/01/05 08:03:33;;;;;;;2.05;0.80;;;22.70;47.60;;;;;;6092627;28;81560;-61
2021/01/05 08:06:34;;;;;;;3.08;1.02;;;22.70;47.10;;;;;;6088550;28;80974;-60
2021/01/05 08:09:34;;;;;;;3.92;0.80;;;22.70;47.90;;;;;;6090049;28;81365;-60
2021/01/05 08:12:35;;;;;;;1.17;0.90;;;22.70;48.10;;;;;;6101023;28;80560;-60
2021/01/05 08:15:35;;;;;;;1.88;0.93;;;22.80;48.50;;;;;;6095082;28;80801;-60
2021/01/05 08:18:36;;;;;;;2.13;1.08;;;22.80;48.50;;;;;;6096577;28;82084;-61
2021/01/05 08:21:36;;;;;;;2.20;1.00;;;22.70;48.60;;;;;;6094936;28;81019;-59
2021/01/05 08:24:37;;;;;;;2.38;0.98;;;22.80;47.80;;;;;;6093038;28;80924;-60
2021/01/05 08:27:37;;;;;;;2.72;1.23;;;22.80;47.30;;;;;;6090654;28;80813;-60
2021/01/05 08:30:39;;;;;;;2.50;1.10;;;22.80;46.90;;;;;;6101161;28;81271;-60
2021/01/05 08:33:40;;;;;;;2.53;1.27;;;22.80;46.50;;;;;;6096796;28;81708;-60
2021/01/05 08:36:41;;;;;;;2.97;1.48;;;22.80;46.30;;;;;;6102271;28;81359;-60
2021/01/05 08:39:41;;;;;;;3.67;1.00;;;22.80;45.80;;;;;;6097552;28;83864;-60
2021/01/05 08:42:42;;;;;;;2.58;1.40;;;22.80;45.50;;;;;;6099269;28;81690;-60
2021/01/05 08:45:42;;;;;;;3.42;1.30;;;22.80;45.20;;;;;;6094922;28;81155;-60
2021/01/05 08:48:43;;;;;;;3.53;1.63;;;22.80;45.30;;;;;;6102313;28;81186;-60
2021/01/05 08:51:43;;;;;;;2.53;1.52;;;22.80;45.00;;;;;;6092827;28;81834;-61
2021/01/05 08:54:44;;;;;;;3.60;1.50;;;22.80;44.70;;;;;;6095849;28;81296;-60
2021/01/05 08:57:44;;;;;;;2.10;1.20;;;22.80;44.60;;;;;;6101868;28;81003;-60
2021/01/05 09:00:44;;;;;;;3.00;1.45;;;22.80;44.50;;;;;;6101377;28;80458;-60
2021/01/05 09:03:45;;;;;;;2.92;1.90;;;22.80;44.20;;;;;;6096609;28;81044;-60
2021/01/05 09:06:45;;;;;;;4.60;1.55;;;22.80;44.20;;;;;;6096542;28;80836;-60
2021/01/05 09:09:46;;;;;;;2.75;1.42;;;22.80;44.20;;;;;;6096889;28;80821;-60
2021/01/05 09:12:47;;;;;;;2.38;1.50;;;22.80;44.20;;;;;;6096680;28;81269;-60
2021/01/05 09:15:47;;;;;;;4.60;1.20;;;22.80;44.20;;;;;;6098488;28;80978;-60
2021/01/05 09:18:48;;;;;;;1.55;0.90;;;22.90;43.70;;;;;;6096864;28;80626;-61
2021/01/05 09:21:48;;;;;;;4.75;1.25;;;22.90;43.70;;;;;;6098649;28;80687;-60
2021/01/05 09:24:49;;;;;;;2.20;1.48;;;22.90;43.20;;;;;;6094147;28;81204;-60
2021/01/05 09:27:49;;;;;;;3.10;1.52;;;22.90;42.80;;;;;;6100179;28;80681;-60
2021/01/05 09:30:50;;;;;;;2.47;1.20;;;22.90;42.80;;;;;;6103245;28;80908;-60
2021/01/05 09:33:50;;;;;;;4.35;1.10;;;22.90;42.40;;;;;;6103128;28;80831;-60
2021/01/05 09:36:51;;;;;;;4.53;1.10;;;22.90;42.10;;;;;;6088643;28;81055;-60
2021/01/05 09:39:52;;;;;;;2.55;1.40;;;23.00;41.60;;;;;;6100888;28;80694;-60
2021/01/05 09:42:52;;;;;;;2.15;1.25;;;23.00;41.20;;;;;;6093698;28;80637;-60
2021/01/05 09:45:53;;;;;;;5.57;1.23;;;23.00;41.40;;;;;;6098398;28;82218;-60
2021/01/05 09:48:53;;;;;;;2.53;1.23;;;22.90;40.90;;;;;;6090520;28;80994;-59
2021/01/05 09:51:54;;;;;;;3.08;1.70;;;22.90;40.90;;;;;;6098899;28;81002;-60
2021/01/05 09:54:54;;;;;;;3.78;2.28;;;22.90;40.80;;;;;;6093567;28;80675;-61
2021/01/05 09:57:55;;;;;;;3.78;2.30;;;22.90;40.40;;;;;;6094807;28;80695;-60
2021/01/05 10:00:56;;;;;;;4.40;2.70;;;22.80;40.30;;;;;;6095898;28;80954;-60
2021/01/05 10:03:56;;;;;;;7.10;3.35;;;22.80;40.50;;;;;;6085947;28;81547;-60
2021/01/05 10:06:57;;;;;;;5.22;3.47;;;22.90;40.60;;;;;;6094113;28;80709;-60
2021/01/05 10:09:57;;;;;;;9.63;3.83;;;23.00;40.50;;;;;;6091730;28;80791;-60
2021/01/05 10:12:58;;;;;;;10.13;3.67;;;22.90;40.30;;;;;;6096236;28;81041;-61
2021/01/05 10:15:58;;;;;;;8.63;4.30;;;23.10;40.60;;;;;;6096389;28;80775;-60
2021/01/05 10:18:59;;;;;;;6.18;4.07;;;23.10;40.60;;;;;;6099344;28;82866;-59
2021/01/05 10:21:59;;;;;;;6.93;4.40;;;23.20;40.40;;;;;;6101289;28;80511;-60
2021/01/05 10:25:00;;;;;;;8.30;4.65;;;23.20;40.30;;;;;;6102065;28;80862;-60
2021/01/05 10:28:01;;;;;;;7.88;4.80;;;23.20;40.00;;;;;;6099257;28;80324;-61
2021/01/05 10:31:01;;;;;;;10.15;4.85;;;23.30;40.00;;;;;;6100256;28;82271;-61
2021/01/05 10:34:02;;;;;;;5.78;4.32;;;23.30;39.80;;;;;;6099424;28;82238;-61
2021/01/05 10:37:02;;;;;;;12.00;5.28;;;23.30;39.50;;;;;;6087880;28;80872;-60
2021/01/05 10:40:03;;;;;;;9.95;4.90;;;23.30;39.30;;;;;;6101149;28;81448;-61
2021/01/05 10:43:03;;;;;;;12.60;5.53;;;23.30;40.00;;;;;;6106407;28;80785;-60
2021/01/05 10:46:04;;;;;;;8.55;5.57;;;23.40;39.10;;;;;;6096311;28;80858;-62
2021/01/05 10:49:04;;;;;;;9.38;5.95;;;23.40;38.70;;;;;;6120660;28;82522;-61
2021/01/05 10:52:05;;;;;;;9.00;5.57;;;23.40;38.50;;;;;;6095580;28;80475;-61
2021/01/05 10:55:06;;;;;;;9.57;6.07;;;23.40;38.30;;;;;;6094284;28;80815;-62
2021/01/05 10:58:06;;;;;;;9.30;5.90;;;23.40;38.10;;;;;;6092162;28;81127;-62
2021/01/05 11:01:07;;;;;;;8.70;5.80;;;23.40;38.30;;;;;;6104778;28;81165;-61
2021/01/05 11:04:07;;;;;;;9.13;5.90;;;23.40;38.30;;;;;;6104758;28;80713;-61
2021/01/05 11:07:08;;;;;;;9.18;5.68;;;23.40;37.90;;;;;;6102514;28;80843;-62
2021/01/05 11:10:09;;;;;;;10.38;6.20;;;23.40;37.80;;;;;;6096458;28;80863;-61
2021/01/05 11:13:09;;;;;;;10.63;6.25;;;23.40;37.40;;;;;;6104033;28;80779;-62
2021/01/05 11:16:10;;;;;;;11.98;7.57;;;23.40;37.50;;;;;;6100345;28;80780;-62
2021/01/05 11:19:10;;;;;;;11.20;6.70;;;23.50;37.50;;;;;;6104914;28;81423;-61
2021/01/05 11:22:12;;;;;;;11.35;6.63;;;23.50;37.60;;;;;;6095827;28;82549;-61
2021/01/05 11:25:13;;;;;;;13.20;7.18;;;23.50;37.60;;;;;;6102497;28;80498;-61
2021/01/05 11:28:13;;;;;;;11.23;6.55;;;23.50;37.60;;;;;;6104275;28;80924;-61
2021/01/05 11:31:14;;;;;;;13.05;6.90;;;23.50;37.50;;;;;;6102281;28;80737;-61
2021/01/05 11:34:14;;;;;;;13.27;7.78;;;23.50;37.60;;;;;;6095782;28;80528;-60
2021/01/05 11:37:15;;;;;;;21.23;9.43;;;23.50;37.30;;;;;;6101060;28;80766;-60
2021/01/05 11:40:15;;;;;;;22.42;9.65;;;23.50;37.40;;;;;;6103399;28;80622;-63
2021/01/05 11:43:16;;;;;;;25.35;10.55;;;23.50;38.00;;;;;;6088558;28;80801;-62
2021/01/05 11:46:16;;;;;;;26.67;10.73;;;23.50;38.00;;;;;;6094228;28;83897;-62
2021/01/05 11:49:17;;;;;;;18.80;9.48;;;23.50;37.80;;;;;;6096083;28;83437;-64
2021/01/05 11:52:17;;;;;;;22.27;9.90;;;23.50;38.00;;;;;;6094953;28;83189;-60
2021/01/05 11:55:18;;;;;;;20.80;10.55;;;23.50;38.00;;;;;;6102196;28;81848;-61
2021/01/05 11:58:18;;;;;;;18.58;9.93;;;23.50;37.90;;;;;;6097463;28;83340;-61
2021/01/05 12:01:19;;;;;;;24.13;10.70;;;23.50;37.80;;;;;;6101953;28;84323;-63
2021/01/05 12:04:20;;;;;;;22.63;10.40;;;23.50;38.10;;;;;;6101681;28;83583;-64
2021/01/05 12:07:20;;;;;;;23.75;10.10;;;23.50;38.10;;;;;;6092344;28;83999;-64
2021/01/05 12:10:21;;;;;;;18.73;10.43;;;23.50;37.80;;;;;;6098953;28;83095;-65
2021/01/05 12:13:21;;;;;;;18.70;10.68;;;23.40;37.30;;;;;;6099625;28;83443;-64
2021/01/05 12:16:22;;;;;;;25.85;10.90;;;23.50;37.50;;;;;;6101480;28;84223;-66
2021/01/05 12:19:22;;;;;;;21.25;11.60;;;23.40;37.00;;;;;;6109539;28;83383;-64
2021/01/05 12:22:23;;;;;;;21.30;11.10;;;23.40;36.90;;;;;;6097795;28;83120;-64
2021/01/05 12:25:23;;;;;;;21.02;11.68;;;23.40;36.70;;;;;;6088129;28;84495;-64
2021/01/05 12:28:24;;;;;;;21.08;11.68;;;23.40;36.60;;;;;;6097569;28;84107;-65
2021/01/05 12:31:24;;;;;;;20.25;11.15;;;23.40;36.60;;;;;;6098945;28;83568;-66
2021/01/05 12:34:25;;;;;;;21.50;11.60;;;23.40;36.40;;;;;;6115336;28;83230;-64
2021/01/05 12:37:25;;;;;;;20.08;12.18;;;23.30;35.80;;;;;;6093427;28;83059;-64
2021/01/05 12:40:26;;;;;;;19.52;11.75;;;23.20;35.60;;;;;;6091450;28;93186;-64
2021/01/05 12:43:27;;;;;;;22.02;11.93;;;23.20;35.60;;;;;;6089687;28;85741;-64
2021/01/05 12:46:27;;;;;;;22.45;11.50;;;23.20;35.80;;;;;;6093808;28;86086;-64
2021/01/05 12:49:28;;;;;;;23.13;12.45;;;23.20;35.60;;;;;;6087595;28;83324;-63
2021/01/05 12:52:28;;;;;;;22.05;12.23;;;23.20;35.60;;;;;;6097259;28;83473;-64
2021/01/05 12:55:29;;;;;;;22.67;12.48;;;23.10;35.40;;;;;;6101085;28;83673;-65
2021/01/05 12:58:29;;;;;;;22.48;11.85;;;23.10;36.10;;;;;;6082578;28;84201;-65
2021/01/05 13:01:30;;;;;;;24.15;12.38;;;23.10;35.40;;;;;;6099301;28;84740;-64
2021/01/05 13:04:30;;;;;;;21.77;12.93;;;23.10;35.40;;;;;;6095336;28;83357;-64
2021/01/05 13:07:31;;;;;;;24.42;12.73;;;23.10;35.30;;;;;;6095407;28;83675;-64
2021/01/05 13:10:31;;;;;;;20.70;12.13;;;23.10;35.20;;;;;;6099844;28;83794;-64
2021/01/05 13:13:32;;;;;;;20.70;11.60;;;23.00;35.10;;;;;;6094736;28;88345;-64
2021/01/05 13:16:33;;;;;;;21.65;12.50;;;23.10;35.10;;;;;;6091282;28;83549;-65
2021/01/05 13:19:33;;;;;;;21.13;12.20;;;23.00;35.10;;;;;;6098472;28;84496;-66
2021/01/05 13:22:34;;;;;;;19.20;12.05;;;23.00;35.10;;;;;;6098440;28;83413;-64
2021/01/05 13:25:34;;;;;;;25.75;12.52;;;23.00;35.10;;;;;;6098834;28;83302;-64
2021/01/05 13:28:35;;;;;;;22.88;12.65;;;23.00;35.00;;;;;;6100373;28;83040;-64
2021/01/05 13:31:35;;;;;;;22.42;12.82;;;23.10;35.30;;;;;;6097244;28;83899;-64
2021/01/05 13:34:38;;;;;;;20.75;11.88;;;23.10;35.10;;;;;;6092648;28;83672;-64
2021/01/05 13:37:38;;;;;;;20.48;12.75;;;23.10;35.10;;;;;;6097419;28;82927;-64
2021/01/05 13:40:39;;;;;;;19.83;11.52;;;23.10;35.10;;;;;;6096585;28;83441;-62
2021/01/05 13:43:39;;;;;;;23.83;13.20;;;23.10;35.30;;;;;;6098212;28;83746;-63
2021/01/05 13:46:40;;;;;;;20.35;12.20;;;23.00;35.50;;;;;;6094629;28;85710;-63
2021/01/05 13:49:40;;;;;;;21.17;11.85;;;23.00;35.40;;;;;;6097137;28;82959;-64
2021/01/05 13:52:41;;;;;;;21.38;11.43;;;23.00;35.70;;;;;;6099641;28;83386;-64
2021/01/05 13:55:41;;;;;;;23.92;11.05;;;23.00;35.80;;;;;;6105148;28;83724;-68
2021/01/05 13:58:42;;;;;;;23.67;12.00;;;22.90;35.80;;;;;;6098946;28;83312;-63
2021/01/05 14:01:42;;;;;;;24.20;12.88;;;23.00;35.70;;;;;;6100849;28;85098;-64
2021/01/05 14:04:43;;;;;;;22.52;12.05;;;23.00;35.60;;;;;;6092016;28;83202;-62
2021/01/05 14:07:44;;;;;;;18.63;11.43;;;23.00;36.00;;;;;;6097412;28;83865;-62
2021/01/05 14:10:44;;;;;;;21.80;12.05;;;23.10;35.80;;;;;;6102282;28;83052;-63
2021/01/05 14:13:45;;;;;;;21.25;12.25;;;23.00;35.20;;;;;;6102086;28;83066;-64
2021/01/05 14:16:45;;;;;;;22.27;12.55;;;23.10;35.00;;;;;;6101386;28;83117;-62
2021/01/05 14:19:46;;;;;;;22.85;12.20;;;23.10;35.00;;;;;;6100564;28;84103;-64
2021/01/05 14:22:46;;;;;;;21.75;11.70;;;23.10;34.80;;;;;;6097449;28;83630;-64
2021/01/05 14:25:47;;;;;;;20.33;11.73;;;23.00;34.70;;;;;;6102187;28;83487;-63
2021/01/05 14:28:47;;;;;;;25.40;13.10;;;23.10;34.90;;;;;;6095941;28;87130;-68
2021/01/05 14:31:48;;;;;;;26.27;13.10;;;23.10;34.70;;;;;;6101715;28;83455;-64
2021/01/05 14:34:48;;;;;;;21.38;12.48;;;23.10;34.70;;;;;;6093042;28;83183;-66
2021/01/05 14:37:49;;;;;;;20.98;12.05;;;23.10;34.80;;;;;;6102145;28;83479;-65
2021/01/05 14:40:49;;;;;;;22.58;12.75;;;23.10;34.80;;;;;;6092111;28;87430;-63
2021/01/05 14:43:50;;;;;;;25.67;12.27;;;23.20;35.40;;;;;;6103992;28;83501;-64
2021/01/05 14:46:50;;;;;;;21.90;12.48;;;23.20;35.20;;;;;;6102159;28;82909;-63
2021/01/05 14:49:51;;;;;;;23.40;11.65;;;23.20;35.20;;;;;;6099321;28;83783;-64
2021/01/05 14:52:52;;;;;;;25.10;12.35;;;23.30;35.30;;;;;;6093994;28;83394;-65
2021/01/05 14:55:52;;;;;;;20.63;11.95;;;23.30;35.30;;;;;;6099588;28;83393;-64
2021/01/05 14:58:53;;;;;;;22.42;12.50;;;23.20;35.20;;;;;;6096952;28;83757;-64
2021/01/05 15:01:53;;;;;;;25.27;12.82;;;23.30;35.50;;;;;;6100427;28;83261;-63
2021/01/05 15:04:54;;;;;;;20.35;11.55;;;23.20;35.20;;;;;;6102259;28;83532;-63
2021/01/05 15:07:54;;;;;;;19.98;11.23;;;23.30;35.10;;;;;;6095350;28;86276;-65
2021/01/05 15:10:55;;;;;;;19.65;11.75;;;23.30;35.00;;;;;;6097317;28;83540;-63
2021/01/05 15:13:55;;;;;;;21.48;12.60;;;23.30;35.00;;;;;;6100090;28;83400;-64
2021/01/05 15:16:56;;;;;;;21.52;11.88;;;23.30;35.40;;;;;;6097451;28;84092;-64
2021/01/05 15:19:56;;;;;;;19.33;11.43;;;23.30;35.60;;;;;;6099100;28;83405;-64
2021/01/05 15:22:57;;;;;;;20.17;11.82;;;23.30;35.80;;;;;;6084966;28;84203;-63
2021/01/05 15:25:57;;;;;;;22.88;12.27;;;23.30;36.10;;;;;;6095351;28;83334;-63
2021/01/05 15:28:58;;;;;;;22.88;11.98;;;23.30;36.20;;;;;;6099524;28;83390;-64
2021/01/05 15:31:58;;;;;;;22.85;12.95;;;23.30;36.10;;;;;;6117622;28;83376;-64
2021/01/05 15:35:01;;;;;;;23.45;12.13;;;23.30;35.90;;;;;;6097438;28;83763;-62